createdAt,value
2018-12-08T00:01:42.005Z,8.50
2018-12-08T00:04:14.002Z,8.50
2018-12-08T00:06:43.074Z,8.30
2018-12-08T00:09:12.063Z,8.30
2018-12-08T00:11:42.458Z,8.20
2018-12-08T00:14:11.580Z,8.20
2018-12-08T00:16:40.652Z,8.10
2018-12-08T00:19:09.698Z,8.10
2018-12-08T00:21:38.767Z,8.00
2018-12-08T00:24:07.812Z,7.90
2018-12-08T00:26:36.811Z,7.90
2018-12-08T00:29:05.864Z,7.80
2018-12-08T00:31:43.322Z,7.80
2018-12-08T00:34:12.346Z,7.80
2018-12-08T00:36:41.374Z,7.70
2018-12-08T00:39:10.510Z,7.70
2018-12-08T00:41:39.523Z,7.60
2018-12-08T00:44:08.623Z,7.60
2018-12-08T00:46:37.699Z,7.50
2018-12-08T00:49:06.689Z,7.50
2018-12-08T00:51:35.893Z,7.50
2018-12-08T00:54:06.902Z,7.60
2018-12-08T00:56:37.234Z,7.70
2018-12-08T00:59:06.247Z,7.80
2018-12-08T01:01:36.010Z,7.90
2018-12-08T01:04:05.179Z,7.80
2018-12-08T01:06:34.247Z,7.70
2018-12-08T01:09:04.074Z,7.60
2018-12-08T01:11:35.103Z,7.60
2018-12-08T01:14:04.161Z,7.50
2018-12-08T01:16:33.171Z,7.50
2018-12-08T01:19:02.248Z,7.40
2018-12-08T01:21:31.288Z,7.40
2018-12-08T01:24:00.338Z,7.40
2018-12-08T01:26:29.493Z,7.30
2018-12-08T01:28:58.563Z,7.30
2018-12-08T01:31:27.659Z,7.40
2018-12-08T01:33:56.673Z,7.40
2018-12-08T01:36:25.702Z,7.40
2018-12-08T01:38:54.819Z,7.40
2018-12-08T01:41:23.868Z,7.30
2018-12-08T01:43:52.873Z,7.30
2018-12-08T01:46:22.002Z,7.20
2018-12-08T01:48:50.978Z,7.20
2018-12-08T01:51:20.030Z,7.20
2018-12-08T01:53:49.170Z,7.30
2018-12-08T01:56:18.244Z,7.30
2018-12-08T01:58:47.274Z,7.20
2018-12-08T02:01:16.285Z,7.20
2018-12-08T02:03:45.340Z,7.20
2018-12-08T02:06:14.371Z,7.10
2018-12-08T02:08:43.418Z,7.00
2018-12-08T02:11:14.509Z,7.00
2018-12-08T02:13:43.532Z,6.90
2018-12-08T02:16:12.554Z,6.80
2018-12-08T02:18:41.646Z,6.90
2018-12-08T02:21:10.700Z,6.90
2018-12-08T02:23:39.813Z,7.10
2018-12-08T02:26:08.908Z,7.30
2018-12-08T02:28:37.942Z,7.50
2018-12-08T02:31:07.037Z,7.60
2018-12-08T02:33:36.072Z,7.60
2018-12-08T02:36:05.159Z,7.60
2018-12-08T02:38:34.234Z,7.50
2018-12-08T02:41:03.335Z,7.50
2018-12-08T02:43:32.359Z,7.50
2018-12-08T02:46:01.511Z,7.50
2018-12-08T02:48:30.542Z,7.50
2018-12-08T02:50:59.517Z,7.40
2018-12-08T02:53:28.799Z,7.20
2018-12-08T02:55:58.294Z,7.10
2018-12-08T02:58:28.420Z,6.90
2018-12-08T03:00:57.450Z,6.80
2018-12-08T03:03:26.499Z,6.80
2018-12-08T03:05:55.513Z,6.70
2018-12-08T03:08:24.562Z,6.60
2018-12-08T03:10:53.690Z,6.60
2018-12-08T03:13:22.716Z,6.50
2018-12-08T03:15:51.662Z,6.40
2018-12-08T03:18:20.783Z,6.40
2018-12-08T03:20:49.818Z,6.40
2018-12-08T03:23:18.789Z,6.40
2018-12-08T03:25:47.828Z,6.30
2018-12-08T03:28:16.950Z,6.30
2018-12-08T03:30:46.040Z,6.20
2018-12-08T03:33:15.071Z,6.20
2018-12-08T03:35:44.094Z,6.30
2018-12-08T03:38:13.240Z,6.30
2018-12-08T03:40:42.303Z,6.30
2018-12-08T03:43:11.342Z,6.30
2018-12-08T03:45:40.391Z,6.20
2018-12-08T03:48:09.486Z,6.20
2018-12-08T03:50:38.568Z,6.20
2018-12-08T03:53:07.561Z,6.20
2018-12-08T03:55:36.612Z,6.20
2018-12-08T03:58:05.803Z,6.30
2018-12-08T04:00:34.983Z,6.40
2018-12-08T04:03:03.950Z,6.50
2018-12-08T04:05:32.973Z,6.60
2018-12-08T04:08:02.007Z,6.50
2018-12-08T04:10:31.054Z,6.50
2018-12-08T04:13:01.220Z,6.50
2018-12-08T04:15:30.381Z,6.60
2018-12-08T04:17:59.440Z,6.60
2018-12-08T04:20:28.523Z,6.70
2018-12-08T04:22:57.628Z,6.90
2018-12-08T04:25:26.794Z,6.90
2018-12-08T04:27:55.790Z,6.90
2018-12-08T04:30:24.771Z,7.00
2018-12-08T04:32:53.764Z,7.10
2018-12-08T04:35:22.806Z,7.20
2018-12-08T04:37:51.946Z,7.30
2018-12-08T04:40:20.939Z,7.40
2018-12-08T04:42:49.962Z,7.50
2018-12-08T04:45:18.998Z,7.50
2018-12-08T04:47:48.068Z,7.60
2018-12-08T04:50:17.075Z,7.50
2018-12-08T04:52:46.111Z,7.30
2018-12-08T04:55:15.085Z,7.20
2018-12-08T04:57:44.084Z,7.00
2018-12-08T05:00:13.122Z,6.80
2018-12-08T05:02:42.155Z,6.70
2018-12-08T05:05:11.193Z,6.60
2018-12-08T05:07:40.263Z,6.60
2018-12-08T05:10:09.302Z,6.80
2018-12-08T05:12:38.399Z,6.80
2018-12-08T05:15:07.388Z,6.80
2018-12-08T05:17:36.417Z,6.80
2018-12-08T05:20:05.662Z,6.70
2018-12-08T05:22:34.689Z,6.70
2018-12-08T05:25:03.773Z,6.60
2018-12-08T05:27:32.814Z,6.60
2018-12-08T05:30:01.855Z,6.50
2018-12-08T05:32:30.875Z,6.50
2018-12-08T05:35:00.018Z,6.50
2018-12-08T05:37:29.038Z,6.60
2018-12-08T05:39:58.024Z,6.70
2018-12-08T05:42:27.771Z,6.90
2018-12-08T05:44:56.812Z,6.90
2018-12-08T05:47:25.842Z,6.90
2018-12-08T05:49:54.819Z,6.80
2018-12-08T05:52:23.833Z,6.80
2018-12-08T05:54:52.851Z,6.80
2018-12-08T05:57:21.848Z,6.90
2018-12-08T05:59:50.881Z,6.90
2018-12-08T06:02:19.868Z,6.80
2018-12-08T06:04:48.968Z,6.70
2018-12-08T06:07:18.049Z,6.50
2018-12-08T06:09:47.029Z,6.30
2018-12-08T06:12:16.012Z,6.20
2018-12-08T06:14:45.039Z,6.10
2018-12-08T06:17:14.117Z,5.90
2018-12-08T06:19:43.139Z,5.90
2018-12-08T06:22:12.158Z,5.80
2018-12-08T06:24:41.171Z,5.80
2018-12-08T06:27:22.015Z,5.70
2018-12-08T06:29:51.056Z,5.60
2018-12-08T06:32:20.060Z,5.60
2018-12-08T06:34:49.084Z,5.60
2018-12-08T06:37:18.108Z,5.60
2018-12-08T06:39:47.070Z,5.80
2018-12-08T06:42:16.128Z,5.80
2018-12-08T06:44:45.181Z,5.90
2018-12-08T06:47:14.154Z,5.90
2018-12-08T06:49:43.284Z,5.90
2018-12-08T06:52:12.471Z,5.90
2018-12-08T06:54:41.484Z,6.00
2018-12-08T06:57:10.484Z,6.10
2018-12-08T06:59:39.557Z,6.20
2018-12-08T07:02:08.620Z,6.30
2018-12-08T07:04:37.670Z,6.30
2018-12-08T07:07:06.677Z,6.40
2018-12-08T07:09:35.616Z,6.50
2018-12-08T07:12:04.740Z,6.60
2018-12-08T07:14:33.724Z,6.70
2018-12-08T07:17:02.722Z,6.90
2018-12-08T07:19:31.780Z,7.00
2018-12-08T07:22:00.844Z,7.10
2018-12-08T07:24:29.902Z,7.20
2018-12-08T07:26:59.493Z,7.20
2018-12-08T07:29:29.262Z,7.20
2018-12-08T07:31:58.290Z,7.20
2018-12-08T07:34:27.324Z,7.20
2018-12-08T07:36:56.370Z,7.40
2018-12-08T07:39:25.430Z,7.40
2018-12-08T07:41:54.487Z,7.50
2018-12-08T07:44:23.490Z,7.50
2018-12-08T07:46:52.470Z,7.60
2018-12-08T07:49:21.634Z,7.60
2018-12-08T07:51:51.357Z,7.60
2018-12-08T07:54:20.440Z,7.70
2018-12-08T07:56:49.569Z,7.70
2018-12-08T07:59:18.626Z,7.80
2018-12-08T08:01:47.761Z,7.80
2018-12-08T08:04:16.750Z,7.90
2018-12-08T08:06:45.874Z,7.90
2018-12-08T08:09:14.837Z,8.00
2018-12-08T08:11:43.934Z,8.10
2018-12-08T08:14:13.107Z,8.20
2018-12-08T08:16:42.147Z,8.30
2018-12-08T08:19:11.270Z,8.40
2018-12-08T08:21:40.369Z,8.40
2018-12-08T08:24:09.448Z,8.50
2018-12-08T08:26:38.471Z,8.50
2018-12-08T08:29:07.591Z,8.60
2018-12-08T08:31:36.647Z,8.60
2018-12-08T08:34:05.868Z,8.60
2018-12-08T08:36:34.930Z,8.60
2018-12-08T08:39:05.917Z,8.60
2018-12-08T08:41:36.462Z,8.70
2018-12-08T08:44:05.608Z,8.60
2018-12-08T08:46:34.680Z,8.60
2018-12-08T08:49:03.614Z,8.60
2018-12-08T08:51:32.639Z,8.60
2018-12-08T08:54:01.722Z,8.70
2018-12-08T08:56:30.754Z,8.70
2018-12-08T08:58:59.777Z,8.70
2018-12-08T09:01:28.745Z,8.80
2018-12-08T09:03:57.727Z,8.80
2018-12-08T09:06:26.760Z,8.80
2018-12-08T09:08:55.860Z,8.90
2018-12-08T09:11:24.988Z,9.00
2018-12-08T09:13:54.082Z,9.10
2018-12-08T09:16:23.808Z,9.20
2018-12-08T09:18:52.786Z,9.30
2018-12-08T09:21:21.849Z,9.40
2018-12-08T09:23:50.956Z,9.40
2018-12-08T09:26:20.035Z,9.40
2018-12-08T09:28:49.057Z,9.50
2018-12-08T09:31:18.123Z,9.50
2018-12-08T09:33:47.073Z,9.50
2018-12-08T09:36:17.220Z,9.40
2018-12-08T09:38:46.434Z,9.40
2018-12-08T09:41:15.547Z,9.30
2018-12-08T09:43:44.598Z,9.30
2018-12-08T09:46:13.658Z,9.40
2018-12-08T09:48:42.786Z,9.60
2018-12-08T09:51:11.762Z,9.70
2018-12-08T09:53:41.904Z,9.70
2018-12-08T09:56:10.935Z,9.80
2018-12-08T09:58:39.937Z,9.80
2018-12-08T10:01:09.017Z,9.90
2018-12-08T10:03:38.003Z,9.80
2018-12-08T10:06:06.986Z,9.80
2018-12-08T10:08:36.251Z,9.70
2018-12-08T10:11:05.241Z,9.70
2018-12-08T10:13:34.321Z,9.70
2018-12-08T10:16:03.341Z,9.70
2018-12-08T10:18:32.331Z,9.60
2018-12-08T10:21:01.521Z,9.60
2018-12-08T10:23:30.588Z,9.70
2018-12-08T10:25:59.624Z,9.70
2018-12-08T10:28:28.603Z,9.60
2018-12-08T10:30:57.655Z,9.60
2018-12-08T10:33:28.236Z,9.60
2018-12-08T10:35:57.460Z,9.70
2018-12-08T10:38:26.513Z,9.70
2018-12-08T10:40:55.525Z,9.80
2018-12-08T10:43:24.616Z,9.90
2018-12-08T10:45:53.598Z,9.90
2018-12-08T10:48:22.643Z,10.00
2018-12-08T10:50:51.683Z,10.20
2018-12-08T10:53:22.784Z,10.30
2018-12-08T10:55:51.832Z,10.40
2018-12-08T10:58:20.829Z,10.50
2018-12-08T11:01:30.702Z,10.60
2018-12-08T11:04:00.414Z,10.60
2018-12-08T11:06:29.590Z,10.60
2018-12-08T11:08:58.584Z,10.50
2018-12-08T11:11:28.139Z,10.40
2018-12-08T11:13:57.246Z,10.30
2018-12-08T11:16:26.290Z,10.20
2018-12-08T11:18:55.330Z,10.20
2018-12-08T11:21:24.318Z,10.20
2018-12-08T11:23:53.341Z,10.20
2018-12-08T11:26:22.487Z,10.10
2018-12-08T11:28:51.636Z,10.00
2018-12-08T11:31:20.634Z,10.00
2018-12-08T11:33:49.665Z,9.90
2018-12-08T11:36:18.687Z,9.80
2018-12-08T11:38:47.680Z,9.80
2018-12-08T11:41:16.643Z,9.70
2018-12-08T11:43:45.764Z,9.70
2018-12-08T11:46:14.835Z,9.50
2018-12-08T11:48:43.892Z,9.50
2018-12-08T11:51:12.904Z,9.40
2018-12-08T11:53:41.844Z,9.40
2018-12-08T11:56:10.823Z,9.40
2018-12-08T11:58:39.812Z,9.40
2018-12-08T12:01:08.889Z,9.50
2018-12-08T12:03:37.934Z,9.50
2018-12-08T12:06:06.978Z,9.50
2018-12-08T12:08:36.056Z,9.50
2018-12-08T12:11:05.312Z,9.70
2018-12-08T12:13:34.936Z,9.90
2018-12-08T12:16:04.012Z,10.10
2018-12-08T12:18:33.024Z,10.20
2018-12-08T12:21:02.043Z,10.30
2018-12-08T12:23:31.083Z,10.30
2018-12-08T12:26:00.140Z,10.40
2018-12-08T12:28:29.228Z,10.50
2018-12-08T12:30:58.494Z,10.50
2018-12-08T12:33:27.537Z,10.40
2018-12-08T12:35:56.712Z,10.40
2018-12-08T12:38:25.687Z,10.40
2018-12-08T12:40:54.690Z,10.40
2018-12-08T12:43:23.692Z,10.40
2018-12-08T12:45:52.707Z,10.40
2018-12-08T12:48:21.731Z,10.40
2018-12-08T12:50:50.776Z,10.40
2018-12-08T12:53:21.880Z,10.30
2018-12-08T12:55:50.994Z,10.30
2018-12-08T12:58:20.198Z,10.20
2018-12-08T13:00:49.166Z,10.10
2018-12-08T13:03:18.229Z,10.00
2018-12-08T13:05:47.273Z,10.00
2018-12-08T13:08:16.317Z,9.90
2018-12-08T13:10:46.157Z,9.90
2018-12-08T13:13:15.160Z,9.90
2018-12-08T13:15:44.199Z,9.90
2018-12-08T13:18:13.275Z,9.90
2018-12-08T13:20:42.289Z,9.90
2018-12-08T13:23:11.281Z,9.90
2018-12-08T13:25:40.314Z,9.80
2018-12-08T13:28:10.432Z,9.80
2018-12-08T13:30:39.538Z,9.80
2018-12-08T13:33:08.596Z,9.80
2018-12-08T13:35:54.119Z,9.70
2018-12-08T13:38:23.481Z,9.70
2018-12-08T13:40:52.631Z,9.70
2018-12-08T13:43:21.595Z,9.60
2018-12-08T13:45:50.654Z,9.50
2018-12-08T13:48:22.316Z,9.50
2018-12-08T13:50:51.900Z,9.50
2018-12-08T13:53:20.936Z,9.50
2018-12-08T13:55:49.908Z,9.60
2018-12-08T13:58:19.005Z,9.70
2018-12-08T14:00:48.164Z,9.80
2018-12-08T14:03:17.159Z,9.80
2018-12-08T14:05:46.173Z,9.80
2018-12-08T14:08:15.242Z,9.80
2018-12-08T14:10:44.267Z,9.70
2018-12-08T14:13:14.020Z,9.70
2018-12-08T14:15:43.160Z,9.70
2018-12-08T14:18:12.208Z,9.60
2018-12-08T14:20:41.186Z,9.60
2018-12-08T14:23:10.422Z,9.50
2018-12-08T14:25:39.464Z,9.40
2018-12-08T14:28:09.454Z,9.40
2018-12-08T14:30:38.561Z,9.40
2018-12-08T14:33:07.532Z,9.30
2018-12-08T14:35:36.585Z,9.30
2018-12-08T14:38:05.621Z,9.30
2018-12-08T14:40:34.664Z,9.30
2018-12-08T14:43:03.670Z,9.20
2018-12-08T14:45:32.816Z,9.20
2018-12-08T14:48:01.895Z,9.20
2018-12-08T14:50:30.978Z,9.20
2018-12-08T14:52:59.938Z,9.10
2018-12-08T14:55:29.015Z,9.10
2018-12-08T14:57:58.045Z,9.10
2018-12-08T15:00:27.990Z,9.00
2018-12-08T15:02:57.004Z,9.00
2018-12-08T15:05:26.121Z,9.00
2018-12-08T15:07:55.130Z,9.00
2018-12-08T15:10:24.146Z,9.00
2018-12-08T15:12:53.214Z,9.00
2018-12-08T15:15:22.200Z,8.90
2018-12-08T15:17:51.308Z,9.00
2018-12-08T15:20:20.450Z,8.90
2018-12-08T15:22:49.448Z,9.00
2018-12-08T15:25:18.432Z,9.00
2018-12-08T15:27:47.517Z,9.00
2018-12-08T15:30:16.482Z,9.00
2018-12-08T15:32:45.474Z,9.00
2018-12-08T15:35:14.645Z,9.00
2018-12-08T15:37:43.760Z,9.00
2018-12-08T15:40:12.823Z,9.00
2018-12-08T15:42:41.925Z,8.90
2018-12-08T15:45:11.791Z,8.90
2018-12-08T15:47:40.901Z,8.90
2018-12-08T15:50:10.712Z,8.90
2018-12-08T15:52:39.779Z,8.80
2018-12-08T15:55:09.720Z,8.80
2018-12-08T15:57:38.821Z,8.80
2018-12-08T16:00:10.253Z,8.80
2018-12-08T16:02:39.216Z,8.80
2018-12-08T16:05:09.059Z,8.80
2018-12-08T16:07:38.189Z,8.70
2018-12-08T16:10:08.870Z,8.80
2018-12-08T16:12:37.931Z,8.80
2018-12-08T16:15:08.668Z,8.80
2018-12-08T16:17:38.671Z,8.80
2018-12-08T16:20:11.398Z,8.80
2018-12-08T16:22:40.391Z,8.80
2018-12-08T16:25:09.408Z,8.80
2018-12-08T16:27:39.636Z,8.90
2018-12-08T16:30:09.312Z,8.90
2018-12-08T16:32:38.535Z,8.90
2018-12-08T16:35:07.546Z,8.90
2018-12-08T16:37:37.279Z,8.90
2018-12-08T16:40:07.137Z,8.90
2018-12-08T16:42:36.152Z,8.90
2018-12-08T16:45:06.941Z,8.90
2018-12-08T16:47:35.978Z,8.90
2018-12-08T16:50:06.329Z,8.90
2018-12-08T16:52:35.464Z,8.90
2018-12-08T16:55:05.562Z,8.80
2018-12-08T16:57:35.135Z,8.80
2018-12-08T17:00:04.230Z,8.80
2018-12-08T17:02:33.504Z,8.80
2018-12-08T17:05:02.566Z,8.80
2018-12-08T17:07:32.445Z,8.80
2018-12-08T17:10:01.431Z,8.90
2018-12-08T17:12:30.483Z,8.90
2018-12-08T17:14:59.510Z,8.90
2018-12-08T17:17:28.468Z,9.00
2018-12-08T17:19:57.463Z,9.00
2018-12-08T17:22:26.478Z,9.00
2018-12-08T17:24:55.524Z,9.00
2018-12-08T17:27:25.948Z,9.00
2018-12-08T17:29:54.961Z,9.10
2018-12-08T17:32:23.921Z,9.00
2018-12-08T17:34:52.939Z,9.00
2018-12-08T17:37:22.124Z,9.10
2018-12-08T17:39:51.209Z,9.10
2018-12-08T17:42:20.250Z,9.10
2018-12-08T17:44:49.327Z,9.00
2018-12-08T17:47:18.420Z,9.10
2018-12-08T17:49:47.426Z,9.10
2018-12-08T17:52:16.484Z,9.10
2018-12-08T17:54:47.604Z,9.00
2018-12-08T17:57:16.596Z,9.10
2018-12-08T17:59:45.833Z,9.10
2018-12-08T18:02:14.965Z,9.10
2018-12-08T18:04:43.971Z,9.10
2018-12-08T18:07:13.015Z,9.20
2018-12-08T18:09:42.037Z,9.10
2018-12-08T18:12:11.060Z,9.10
2018-12-08T18:14:40.079Z,9.10
2018-12-08T18:17:09.204Z,9.10
2018-12-08T18:19:38.309Z,9.10
2018-12-08T18:22:07.514Z,9.10
2018-12-08T18:24:37.713Z,9.10
2018-12-08T18:27:06.887Z,9.10
2018-12-08T18:29:35.916Z,9.10
2018-12-08T18:32:05.090Z,9.10
2018-12-08T18:34:34.090Z,9.10
2018-12-08T18:37:03.192Z,9.00
2018-12-08T18:39:32.199Z,9.00
2018-12-08T18:42:01.156Z,9.00
2018-12-08T18:44:30.304Z,8.90
2018-12-08T18:46:59.343Z,9.00
2018-12-08T18:49:28.381Z,8.90
2018-12-08T18:51:57.382Z,8.90
2018-12-08T18:54:26.554Z,8.90
2018-12-08T18:56:55.665Z,8.90
2018-12-08T18:59:24.748Z,8.90
2018-12-08T19:01:54.851Z,8.90
2018-12-08T19:04:23.843Z,8.90
2018-12-08T19:06:52.926Z,8.90
2018-12-08T19:09:21.998Z,8.90
2018-12-08T19:11:52.338Z,8.80
2018-12-08T19:14:21.377Z,8.80
2018-12-08T19:16:50.457Z,8.80
2018-12-08T19:19:19.483Z,8.80
2018-12-08T19:21:48.482Z,8.80
2018-12-08T19:24:17.558Z,8.70
2018-12-08T19:26:46.554Z,8.70
2018-12-08T19:29:15.522Z,8.70
2018-12-08T19:31:44.682Z,8.80
2018-12-08T19:34:13.656Z,8.80
2018-12-08T19:36:42.711Z,8.80
2018-12-08T19:39:11.765Z,8.80
2018-12-08T19:41:40.838Z,8.80
2018-12-08T19:44:09.871Z,8.80
2018-12-08T19:46:38.874Z,8.80
2018-12-08T19:49:08.876Z,8.80
2018-12-08T19:51:38.108Z,8.80
2018-12-08T19:54:07.095Z,8.80
2018-12-08T19:56:36.215Z,8.80
2018-12-08T19:59:06.296Z,8.90
2018-12-08T20:01:35.400Z,8.90
2018-12-08T20:04:04.448Z,8.80
2018-12-08T20:06:33.463Z,8.80
2018-12-08T20:09:02.573Z,8.80
2018-12-08T20:11:33.540Z,8.90
2018-12-08T20:14:02.586Z,8.90
2018-12-08T20:16:31.640Z,8.90
2018-12-08T20:19:00.665Z,8.90
2018-12-08T20:21:29.652Z,8.90
2018-12-08T20:23:58.651Z,8.90
2018-12-08T20:26:27.796Z,8.90
2018-12-08T20:28:56.751Z,8.90
2018-12-08T20:31:34.398Z,8.90
2018-12-08T20:34:04.923Z,8.90
2018-12-08T20:36:35.557Z,8.90
2018-12-08T20:39:31.935Z,8.90
2018-12-08T20:42:49.988Z,8.90
2018-12-08T20:45:19.435Z,8.90
2018-12-08T20:47:48.821Z,8.90
2018-12-08T20:53:28.327Z,8.90
2018-12-08T20:55:57.603Z,8.80
2018-12-08T20:58:26.938Z,8.80
2018-12-08T21:00:56.068Z,8.80
2018-12-08T21:03:25.122Z,8.80
2018-12-08T21:05:54.058Z,8.90
2018-12-08T21:08:23.188Z,8.90
2018-12-08T21:10:52.358Z,8.90
2018-12-08T21:13:21.707Z,8.90
2018-12-08T21:15:50.914Z,8.90
2018-12-08T21:18:20.102Z,8.90
2018-12-08T21:20:49.654Z,8.90
2018-12-08T21:23:18.871Z,8.90
2018-12-08T21:25:47.898Z,8.90
2018-12-08T21:28:16.943Z,8.90
2018-12-08T21:30:45.923Z,8.90
2018-12-08T21:33:14.890Z,8.90
2018-12-08T21:35:43.904Z,8.90
2018-12-08T21:38:12.944Z,8.90
2018-12-08T21:40:42.852Z,8.90
2018-12-08T21:43:12.940Z,8.90
2018-12-08T21:45:41.940Z,9.00
2018-12-08T21:48:11.267Z,8.90
2018-12-08T21:50:40.244Z,8.90
2018-12-08T21:53:09.206Z,8.90
2018-12-08T21:55:38.223Z,8.90
2018-12-08T21:58:07.169Z,8.80
2018-12-08T22:00:36.206Z,8.80
2018-12-08T22:03:05.251Z,8.80
2018-12-08T22:05:34.267Z,8.80
2018-12-08T22:08:03.220Z,8.80
2018-12-08T22:10:32.246Z,8.80
2018-12-08T22:13:01.214Z,8.80
2018-12-08T22:15:30.210Z,8.80
2018-12-08T22:17:59.185Z,8.70
2018-12-08T22:20:28.149Z,8.70
2018-12-08T22:22:57.234Z,8.80
2018-12-08T22:25:26.236Z,8.80
2018-12-08T22:27:55.266Z,8.80
2018-12-08T22:30:24.345Z,8.80
2018-12-08T22:32:53.403Z,8.80
2018-12-08T22:35:22.390Z,8.80
2018-12-08T22:37:51.411Z,8.80
2018-12-08T22:40:20.460Z,8.90
2018-12-08T22:42:49.434Z,8.90
2018-12-08T22:45:18.522Z,8.90
2018-12-08T22:47:47.602Z,8.90
2018-12-08T22:50:16.613Z,8.80
2018-12-08T22:52:45.659Z,8.80
2018-12-08T22:55:14.677Z,8.70
2018-12-08T22:57:43.671Z,8.70
2018-12-08T23:00:47.974Z,8.70
2018-12-08T23:03:17.038Z,8.70
2018-12-08T23:05:46.036Z,8.70
2018-12-08T23:08:15.046Z,8.70
2018-12-08T23:10:44.005Z,8.70
2018-12-08T23:13:13.024Z,8.70
2018-12-08T23:15:42.017Z,8.70
2018-12-08T23:18:11.674Z,8.70
2018-12-08T23:20:40.752Z,8.70
2018-12-08T23:23:09.770Z,8.80
2018-12-08T23:25:38.784Z,8.80
2018-12-08T23:28:07.816Z,8.70
2018-12-08T23:30:36.788Z,8.70
2018-12-08T23:33:05.767Z,8.80
2018-12-08T23:35:35.152Z,8.80
2018-12-08T23:38:04.278Z,8.80
2018-12-08T23:40:33.257Z,8.80
2018-12-08T23:43:02.285Z,8.80
2018-12-08T23:45:32.265Z,8.80
2018-12-08T23:48:01.413Z,8.80
2018-12-08T23:50:30.461Z,8.80
2018-12-08T23:52:59.543Z,8.80
2018-12-08T23:55:28.522Z,8.80
2018-12-08T23:57:57.629Z,8.80
